Anna-meta — A8XN3 — position and weather

sailwx.info

Track history (hours):
 
Tides and Currents Weather Stations Pressure Air Temp Water Temp Dewpoint Dewpoint Depression Visibility Wind Speed Wind Dir Waves Ship Positions

Anna-meta

Last reported at 2017-Jun-27 01:38 UTC. Time now 2017-Aug-17 23:34 UTC.
Position N 01°57' E 102°16'.
Warning: this ship's position is 51 days out of date.

Length 190 m; draft 10.2 m.

Type: Cargo ship. MMSI: 636092143.

Date/timePositionNaut miles runAvg speedWind from/ knotsBaromVisibWave heightAir tempDewpointWater temp
2017-Jun-27 01:38N 01°57' E 102°16'311.3
2017-Jun-27 01:22N 01°56' E 102°18'411.2
2017-Jun-27 01:01N 01°54' E 102°22'611.8
2017-Jun-27 00:29N 01°52' E 102°28'612.5
2017-Jun-27 00:01N 01°50' E 102°33'812.9
2017-Jun-26 23:25N 01°47' E 102°40'613.6
2017-Jun-26 22:59N 01°44' E 102°45'1713.7
2017-Jun-26 21:46N 01°37' E 103°00'2213.7
2017-Jun-26 20:09N 01°22' E 103°17'312.6
2017-Jun-26 19:55N 01°20' E 103°19'512.3
2017-Jun-26 19:31N 01°17' E 103°23'611.7
2017-Jun-26 19:00N 01°14' E 103°28'611.9
2017-Jun-26 18:31N 01°13' E 103°33'611.2
2017-Jun-26 18:01N 01°12' E 103°39'611.0
2017-Jun-26 17:31N 01°09' E 103°44'510.9
2017-Jun-26 17:01N 01°11' E 103°49'611.9
2017-Jun-26 16:30N 01°13' E 103°54'3 6.1
2017-Jun-26 16:00N 01°16' E 103°56'3 3.9
2017-Jun-26 15:21N 01°17' E 103°54'0 0.0
2017-Jun-26 14:48N 01°17' E 103°54'0 0.0
2017-Jun-26 14:15N 01°17' E 103°54'0 0.0
2017-Jun-26 12:54N 01°17' E 103°54'0 0.0
2017-Jun-26 12:27N 01°17' E 103°54'0 0.0
2017-Jun-26 11:48N 01°17' E 103°54'0 0.0
2017-Jun-26 10:39N 01°17' E 103°54'0 0.0
2017-Jun-26 10:27N 01°17' E 103°54'0 0.0
2017-Jun-26 10:00N 01°17' E 103°54'0 0.1
2017-Jun-26 09:24N 01°17' E 103°54'0 0.1
2017-Jun-26 08:57N 01°17' E 103°54'0 0.1
2017-Jun-26 07:39N 01°17' E 103°54'0 0.0
2017-Jun-26 07:24N 01°17' E 103°54'0 0.2
2017-Jun-26 07:00N 01°17' E 103°54'0 0.0
2017-Jun-26 06:24N 01°17' E 103°54'0 0.0
2017-Jun-26 06:00N 01°17' E 103°54'0 0.0
2017-Jun-26 05:18N 01°17' E 103°54'0 0.0
2017-Jun-26 05:00N 01°17' E 103°54'0 0.1
2017-Jun-26 04:27N 01°17' E 103°54'0 0.1
2017-Jun-26 04:00N 01°17' E 103°54'0 0.0
2017-Jun-26 03:12N 01°17' E 103°54'0 0.0
2017-Jun-26 02:57N 01°17' E 103°54'0 0.0
2017-Jun-26 02:27N 01°17' E 103°54'0 0.0
2017-Jun-26 02:00N 01°17' E 103°54'0 0.0
2017-Jun-26 01:30N 01°17' E 103°54'0 0.0
2017-Jun-26 00:48N 01°17' E 103°54'0 0.1
2017-Jun-25 22:50N 01°16' E 103°54'1 2.8
2017-Jun-25 22:30N 01°16' E 103°54'2 3.8
2017-Jun-25 22:00N 01°14' E 103°55'4 7.5
2017-Jun-25 21:30N 01°15' E 103°58'5 9.8
2017-Jun-25 21:00N 01°16' E 104°03'5 9.6
2017-Jun-25 20:30N 01°17' E 104°08'5 9.4
2017-Jun-25 19:58N 01°18' E 104°13'  
Track history (hours):
 
Tides and Currents Weather Stations Pressure Air Temp Water Temp Dewpoint Dewpoint Depression Visibility Wind Speed Wind Dir Waves Ship Positions

Anna-meta

Last reported at 2017-Jun-27 01:38 UTC. Time now 2017-Aug-17 23:34 UTC.
Position N 01°57' E 102°16'.
Warning: this ship's position is 51 days out of date.

Length 190 m; draft 10.2 m.

Type: Cargo ship. MMSI: 636092143.

Date/timePositionNaut miles runAvg speedWind from/ knotsBaromVisibWave heightAir tempDewpointWater temp
2017-Jun-27 01:38N 01°57' E 102°16'311.3
2017-Jun-27 01:22N 01°56' E 102°18'411.2
2017-Jun-27 01:01N 01°54' E 102°22'611.8
2017-Jun-27 00:29N 01°52' E 102°28'612.5
2017-Jun-27 00:01N 01°50' E 102°33'812.9
2017-Jun-26 23:25N 01°47' E 102°40'613.6
2017-Jun-26 22:59N 01°44' E 102°45'1713.7
2017-Jun-26 21:46N 01°37' E 103°00'2213.7
2017-Jun-26 20:09N 01°22' E 103°17'312.6
2017-Jun-26 19:55N 01°20' E 103°19'512.3
2017-Jun-26 19:31N 01°17' E 103°23'611.7
2017-Jun-26 19:00N 01°14' E 103°28'611.9
2017-Jun-26 18:31N 01°13' E 103°33'611.2
2017-Jun-26 18:01N 01°12' E 103°39'611.0
2017-Jun-26 17:31N 01°09' E 103°44'510.9
2017-Jun-26 17:01N 01°11' E 103°49'611.9
2017-Jun-26 16:30N 01°13' E 103°54'3 6.1
2017-Jun-26 16:00N 01°16' E 103°56'3 3.9
2017-Jun-26 15:21N 01°17' E 103°54'0 0.0
2017-Jun-26 14:48N 01°17' E 103°54'0 0.0
2017-Jun-26 14:15N 01°17' E 103°54'0 0.0
2017-Jun-26 12:54N 01°17' E 103°54'0 0.0
2017-Jun-26 12:27N 01°17' E 103°54'0 0.0
2017-Jun-26 11:48N 01°17' E 103°54'0 0.0
2017-Jun-26 10:39N 01°17' E 103°54'0 0.0
2017-Jun-26 10:27N 01°17' E 103°54'0 0.0
2017-Jun-26 10:00N 01°17' E 103°54'0 0.1
2017-Jun-26 09:24N 01°17' E 103°54'0 0.1
2017-Jun-26 08:57N 01°17' E 103°54'0 0.1
2017-Jun-26 07:39N 01°17' E 103°54'0 0.0
2017-Jun-26 07:24N 01°17' E 103°54'0 0.2
2017-Jun-26 07:00N 01°17' E 103°54'0 0.0
2017-Jun-26 06:24N 01°17' E 103°54'0 0.0
2017-Jun-26 06:00N 01°17' E 103°54'0 0.0
2017-Jun-26 05:18N 01°17' E 103°54'0 0.0
2017-Jun-26 05:00N 01°17' E 103°54'0 0.1
2017-Jun-26 04:27N 01°17' E 103°54'0 0.1
2017-Jun-26 04:00N 01°17' E 103°54'0 0.0
2017-Jun-26 03:12N 01°17' E 103°54'0 0.0
2017-Jun-26 02:57N 01°17' E 103°54'0 0.0
2017-Jun-26 02:27N 01°17' E 103°54'0 0.0
2017-Jun-26 02:00N 01°17' E 103°54'0 0.0
2017-Jun-26 01:30N 01°17' E 103°54'0 0.0
2017-Jun-26 00:48N 01°17' E 103°54'0 0.1
2017-Jun-25 22:50N 01°16' E 103°54'1 2.8
2017-Jun-25 22:30N 01°16' E 103°54'2 3.8
2017-Jun-25 22:00N 01°14' E 103°55'4 7.5
2017-Jun-25 21:30N 01°15' E 103°58'5 9.8
2017-Jun-25 21:00N 01°16' E 104°03'5 9.6
2017-Jun-25 20:30N 01°17' E 104°08'5 9.4
2017-Jun-25 19:58N 01°18' E 104°13'  

Dump ship's entire track history